Time;durP1;ratioP1;P1;durP2;ratioP2;P2;SDS_P1;SDS_P2;PMS_P1;PMS_P2;Temp;Humidity;BMP_temperature;BMP_pressure;BME280_temperature;BME280_humidity;BME280_pressure;Samples;Min_cycle;Max_cycle;Signal;HPM_P1;HPM_P2
2022/12/26 00:01:18;;;;;;;0.95;0.20;;;19.10;65.00;;;;;;5033603;28;20056;-80
2022/12/26 00:03:44;;;;;;;0.22;0.10;;;19.10;65.10;;;;;;5032442;28;20026;-79
2022/12/26 00:06:16;;;;;;;0.60;0.20;;;19.10;65.20;;;;;;5033349;28;20044;-79
2022/12/26 00:08:42;;;;;;;0.30;0.20;;;19.10;65.30;;;;;;5032420;28;20049;-79
2022/12/26 00:11:08;;;;;;;0.35;0.20;;;19.10;65.50;;;;;;5032323;28;20029;-79
2022/12/26 00:13:34;;;;;;;0.20;0.10;;;19.00;65.50;;;;;;5033480;28;20029;-80
2022/12/26 00:16:04;;;;;;;0.60;0.20;;;19.00;65.70;;;;;;5033403;28;20040;-79
2022/12/26 00:18:29;;;;;;;0.47;0.20;;;19.00;65.70;;;;;;5032159;28;20032;-79
2022/12/26 00:20:55;;;;;;;0.20;0.13;;;19.00;65.70;;;;;;5032020;28;20029;-79
2022/12/26 00:23:21;;;;;;;0.98;0.25;;;19.00;65.80;;;;;;5031897;28;20030;-80
2022/12/26 00:25:46;;;;;;;0.68;0.20;;;19.00;65.90;;;;;;5032181;28;20026;-80
2022/12/26 00:28:12;;;;;;;2.75;0.10;;;19.00;66.00;;;;;;5032923;28;20373;-80
2022/12/26 00:30:37;;;;;;;0.10;0.00;;;18.90;67.00;;;;;;5031860;28;20518;-80
2022/12/26 00:33:03;;;;;;;0.65;0.20;;;18.90;66.00;;;;;;5033124;28;20559;-80
2022/12/26 00:35:29;;;;;;;0.25;0.25;;;18.90;66.10;;;;;;5032903;28;20112;-80
2022/12/26 00:37:54;;;;;;;0.10;0.10;;;18.90;66.20;;;;;;5032064;28;20035;-80
2022/12/26 00:40:20;;;;;;;0.30;0.20;;;18.90;66.30;;;;;;5031743;28;20033;-80
2022/12/26 00:42:46;;;;;;;0.38;0.10;;;18.90;66.30;;;;;;5031973;28;20030;-80
2022/12/26 00:45:11;;;;;;;0.30;0.20;;;18.80;66.30;;;;;;5032778;28;20033;-80
2022/12/26 00:47:37;;;;;;;0.25;0.20;;;18.80;66.40;;;;;;5033025;28;20053;-79
2022/12/26 00:50:03;;;;;;;1.15;0.30;;;18.80;66.50;;;;;;5032796;28;20049;-79
2022/12/26 00:52:28;;;;;;;0.40;0.10;;;18.80;66.50;;;;;;5031561;28;20547;-79
2022/12/26 00:54:54;;;;;;;0.52;0.22;;;18.80;66.60;;;;;;5031591;28;20124;-79
2022/12/26 00:57:20;;;;;;;0.35;0.20;;;18.80;66.70;;;;;;5032307;28;20064;-79
2022/12/26 00:59:45;;;;;;;0.10;0.10;;;18.80;66.70;;;;;;5032117;28;20076;-79
2022/12/26 01:04:55;;;;;;;3.60;0.30;;;18.70;66.80;;;;;;5032166;28;20055;-79
2022/12/26 01:07:21;;;;;;;0.38;0.15;;;18.70;66.90;;;;;;5031917;28;20457;-79
2022/12/26 01:09:46;;;;;;;0.85;0.40;;;18.70;67.00;;;;;;5015684;28;20032;-78
2022/12/26 01:12:12;;;;;;;0.65;0.30;;;18.70;67.00;;;;;;5033075;28;20104;-79
2022/12/26 01:14:37;;;;;;;0.22;0.13;;;18.70;67.00;;;;;;5031963;28;20059;-79
2022/12/26 01:17:03;;;;;;;0.75;0.30;;;18.70;67.10;;;;;;5033245;28;20057;-79
2022/12/26 01:19:29;;;;;;;0.43;0.20;;;18.70;67.10;;;;;;5031635;28;20072;-79
2022/12/26 01:21:54;;;;;;;0.20;0.17;;;18.70;67.10;;;;;;5032869;28;20022;-79
2022/12/26 01:24:20;;;;;;;0.32;0.20;;;18.60;67.20;;;;;;5015223;28;20033;-79
2022/12/26 01:26:45;;;;;;;0.65;0.30;;;18.60;67.20;;;;;;5031980;28;20032;-79
2022/12/26 01:29:11;;;;;;;0.73;0.20;;;18.60;67.20;;;;;;5031921;28;20028;-79
2022/12/26 01:31:37;;;;;;;0.60;0.20;;;18.60;67.90;;;;;;5032716;28;20341;-79
2022/12/26 01:34:02;;;;;;;0.75;0.20;;;18.60;67.30;;;;;;5031551;28;20030;-79
2022/12/26 01:36:28;;;;;;;0.75;0.10;;;18.60;67.40;;;;;;5015189;28;20021;-79
2022/12/26 01:38:53;;;;;;;0.90;0.30;;;18.60;67.40;;;;;;5032922;28;20029;-79
2022/12/26 01:41:19;;;;;;;0.20;0.17;;;18.60;67.50;;;;;;5032767;28;20033;-79
2022/12/26 01:43:57;;;;;;;0.75;0.30;;;18.60;67.50;;;;;;5031576;28;20079;-79
2022/12/26 01:46:33;;;;;;;0.45;0.20;;;18.60;67.50;;;;;;5014874;28;20483;-79
2022/12/26 01:49:25;;;;;;;0.55;0.30;;;18.50;67.50;;;;;;5016183;28;20022;-79
2022/12/26 01:51:54;;;;;;;0.40;0.20;;;18.60;67.60;;;;;;5031728;28;20065;-79
2022/12/26 01:54:19;;;;;;;1.00;0.15;;;18.50;67.60;;;;;;5015275;28;20079;-79
2022/12/26 01:56:45;;;;;;;0.50;0.13;;;18.50;67.60;;;;;;4998486;28;20475;-79
2022/12/26 01:59:16;;;;;;;0.30;0.20;;;18.50;67.70;;;;;;5015051;28;20026;-79
2022/12/26 02:01:42;;;;;;;0.28;0.20;;;18.50;67.70;;;;;;5031003;28;20057;-79
2022/12/26 02:06:57;;;;;;;0.30;0.20;;;18.50;67.70;;;;;;5020750;28;20025;-79
2022/12/26 02:09:22;;;;;;;0.52;0.20;;;18.50;67.80;;;;;;5053715;28;20025;-79
2022/12/26 02:12:02;;;;;;;0.10;0.10;;;18.50;67.80;;;;;;5056500;28;20398;-79
2022/12/26 02:14:28;;;;;;;1.48;0.68;;;18.40;67.80;;;;;;5054635;28;20115;-79
2022/12/26 02:16:54;;;;;;;0.20;0.20;;;18.50;67.90;;;;;;5035532;28;20139;-79
2022/12/26 02:19:48;;;;;;;0.45;0.20;;;18.40;68.90;;;;;;5018742;28;20025;-79
2022/12/26 02:22:51;;;;;;;0.65;0.30;;;18.40;67.90;;;;;;5019144;28;20033;-79
2022/12/26 02:25:35;;;;;;;0.52;0.25;;;18.50;68.00;;;;;;5034653;28;20029;-79
2022/12/26 02:28:10;;;;;;;0.40;0.25;;;18.40;68.00;;;;;;5034624;28;20380;-79
2022/12/26 02:31:14;;;;;;;0.55;0.25;;;18.40;68.00;;;;;;5035413;28;20030;-78
2022/12/26 02:33:46;;;;;;;0.85;0.30;;;18.40;68.00;;;;;;5032681;28;20087;-78
2022/12/26 02:36:17;;;;;;;;;;;18.40;68.00;;;;;;5034788;28;20029;-78
2022/12/26 02:38:47;;;;;;;1.00;0.13;;;18.40;68.00;;;;;;5034271;28;19905;-78
2022/12/26 02:41:43;;;;;;;0.88;0.30;;;18.40;68.10;;;;;;5034567;28;20076;-78
2022/12/26 02:47:11;;;;;;;0.25;0.13;;;18.40;68.20;;;;;;5034484;28;20041;-78
2022/12/26 03:15:03;;;;;;;1.08;0.22;;;18.30;68.60;;;;;;5034492;28;20140;-79
2022/12/26 03:17:32;;;;;;;0.82;0.20;;;18.30;68.50;;;;;;5033378;28;20450;-79
2022/12/26 03:20:08;;;;;;;1.13;0.43;;;18.30;68.70;;;;;;5032168;28;20026;-79
2022/12/26 03:22:55;;;;;;;0.10;0.10;;;18.30;68.60;;;;;;5033619;28;20083;-79
2022/12/26 03:28:44;;;;;;;0.40;0.20;;;18.30;68.70;;;;;;5035179;28;20039;-79
2022/12/26 03:31:11;;;;;;;0.90;0.25;;;18.30;68.70;;;;;;5033943;28;20022;-79
2022/12/26 03:36:50;;;;;;;0.28;0.15;;;18.30;68.80;;;;;;5035202;28;20032;-79
2022/12/26 04:19:59;;;;;;;0.85;0.20;;;18.20;69.30;;;;;;5018272;28;20072;-79
2022/12/26 04:45:19;;;;;;;0.70;0.20;;;18.20;69.40;;;;;;5026655;28;20029;-79
2022/12/26 04:50:10;;;;;;;1.75;0.40;;;18.20;69.40;;;;;;5045255;28;20377;-79
2022/12/26 04:50:30;;;;;;;0.20;0.20;;;18.20;69.40;;;;;;5026499;28;20025;-79
2022/12/26 04:52:58;;;;;;;1.40;0.38;;;18.20;69.40;;;;;;5045475;28;20032;-79
2022/12/26 04:55:28;;;;;;;0.93;0.30;;;18.20;69.50;;;;;;5028483;28;20061;-78
2022/12/26 04:57:54;;;;;;;1.85;0.30;;;18.20;69.50;;;;;;5044720;28;20029;-79
2022/12/26 05:00:20;;;;;;;0.60;0.20;;;18.20;69.60;;;;;;5012715;28;20026;-79
2022/12/26 05:11:14;;;;;;;1.05;0.32;;;18.20;69.60;;;;;;4978467;28;20032;-80
2022/12/26 05:13:39;;;;;;;0.73;0.30;;;18.20;69.70;;;;;;4991918;28;20035;-80
2022/12/26 05:29:46;;;;;;;1.13;0.45;;;18.20;69.90;;;;;;4978154;28;20455;-79
2022/12/26 05:32:12;;;;;;;0.57;0.30;;;18.20;69.90;;;;;;4975364;28;20580;-79
2022/12/26 05:34:38;;;;;;;0.73;0.30;;;18.20;70.00;;;;;;4991697;28;20109;-79
2022/12/26 05:37:03;;;;;;;1.23;0.50;;;18.20;70.00;;;;;;4975455;28;20161;-79
2022/12/26 05:39:29;;;;;;;0.60;0.32;;;18.20;70.00;;;;;;4975208;28;20125;-79
2022/12/26 05:41:55;;;;;;;1.02;0.50;;;18.20;70.00;;;;;;4973786;28;20034;-79
2022/12/26 05:44:20;;;;;;;0.70;0.30;;;18.20;70.00;;;;;;4999595;28;20042;-79
2022/12/26 05:46:46;;;;;;;1.48;0.30;;;18.20;70.00;;;;;;5035571;28;20482;-79
2022/12/26 05:49:12;;;;;;;1.85;0.30;;;18.20;70.00;;;;;;5037188;28;20021;-79
2022/12/26 05:51:38;;;;;;;0.30;0.20;;;18.20;70.00;;;;;;5035964;28;20028;-79
2022/12/26 05:54:03;;;;;;;1.50;0.43;;;18.20;69.90;;;;;;5035781;28;20029;-79
2022/12/26 05:56:29;;;;;;;0.45;0.28;;;18.20;69.90;;;;;;5035789;28;20025;-78
2022/12/26 05:58:59;;;;;;;0.45;0.22;;;18.20;69.90;;;;;;5035865;28;20033;-79
2022/12/26 06:01:25;;;;;;;1.30;0.47;;;18.20;69.90;;;;;;5035431;28;20053;-78
2022/12/26 06:03:52;;;;;;;0.30;0.20;;;18.20;70.00;;;;;;5035773;28;20083;-79
2022/12/26 06:06:18;;;;;;;2.10;0.47;;;18.10;70.00;;;;;;5036907;28;20112;-79
2022/12/26 06:08:47;;;;;;;2.45;0.55;;;18.10;71.00;;;;;;5035172;28;20120;-79
2022/12/26 06:11:13;;;;;;;1.45;0.30;;;18.10;71.00;;;;;;5035091;28;20020;-79
2022/12/26 06:13:39;;;;;;;0.63;0.20;;;18.10;70.00;;;;;;5036515;28;20021;-79
2022/12/26 06:16:13;;;;;;;1.38;0.35;;;18.10;70.10;;;;;;5035587;28;20029;-79
2022/12/26 06:18:38;;;;;;;0.60;0.35;;;18.10;70.10;;;;;;5035561;28;20026;-79
2022/12/26 06:21:12;;;;;;;0.52;0.22;;;18.10;70.10;;;;;;5035253;28;20028;-79
2022/12/26 06:23:38;;;;;;;0.60;0.40;;;18.10;70.20;;;;;;5036263;28;20032;-79
2022/12/26 06:26:04;;;;;;;1.08;0.52;;;18.10;70.10;;;;;;5035535;28;20018;-79
2022/12/26 06:28:29;;;;;;;0.50;0.38;;;18.10;70.20;;;;;;5035161;28;20032;-79
2022/12/26 06:31:04;;;;;;;1.15;0.35;;;18.10;70.30;;;;;;5035003;28;20412;-79
2022/12/26 06:33:30;;;;;;;0.57;0.20;;;18.20;70.30;;;;;;5035082;28;20100;-79
2022/12/26 06:36:01;;;;;;;1.73;0.47;;;18.10;70.40;;;;;;5035054;28;20076;-79
2022/12/26 06:38:27;;;;;;;0.73;0.30;;;18.10;70.20;;;;;;5034877;28;20018;-79
2022/12/26 06:40:53;;;;;;;1.25;0.50;;;18.10;70.20;;;;;;5036175;28;20095;-79
2022/12/26 06:43:18;;;;;;;0.20;0.10;;;18.10;70.20;;;;;;5036178;28;20499;-79
2022/12/26 06:45:44;;;;;;;0.93;0.50;;;18.20;70.20;;;;;;5034523;28;20035;-79
2022/12/26 06:48:09;;;;;;;1.83;0.30;;;18.10;70.30;;;;;;5033539;28;20036;-79
2022/12/26 06:50:36;;;;;;;0.60;0.30;;;18.10;70.30;;;;;;5034643;28;20105;-79
2022/12/26 06:53:01;;;;;;;1.00;0.28;;;18.10;70.20;;;;;;5033547;28;20056;-78
2022/12/26 06:55:27;;;;;;;1.40;0.40;;;18.10;70.30;;;;;;5034781;28;20026;-78
2022/12/26 06:57:53;;;;;;;1.10;0.35;;;18.10;70.80;;;;;;5033431;28;20383;-78
2022/12/26 07:00:18;;;;;;;1.00;0.40;;;18.10;70.30;;;;;;5034757;28;20036;-78
2022/12/26 07:02:44;;;;;;;0.63;0.35;;;18.10;70.00;;;;;;5034700;28;20507;-78
2022/12/26 07:05:10;;;;;;;1.00;0.40;;;18.10;66.90;;;;;;5032185;28;20030;-80
2022/12/26 07:07:36;;;;;;;0.75;0.32;;;18.00;67.30;;;;;;5034196;28;20029;-78
2022/12/26 07:10:01;;;;;;;0.90;0.30;;;17.90;67.40;;;;;;5034493;28;20035;-78
2022/12/26 07:12:27;;;;;;;0.73;0.30;;;18.00;67.40;;;;;;5033339;28;20021;-78
2022/12/26 07:14:52;;;;;;;0.38;0.30;;;17.90;67.40;;;;;;5032951;28;20561;-78
2022/12/26 07:17:18;;;;;;;0.55;0.30;;;17.90;67.30;;;;;;5034118;28;20139;-79
2022/12/26 07:19:44;;;;;;;1.20;0.20;;;17.80;67.10;;;;;;5032795;28;20156;-82
2022/12/26 07:22:09;;;;;;;1.38;0.30;;;17.80;67.20;;;;;;5032962;28;20083;-82
2022/12/26 07:24:36;;;;;;;0.98;0.38;;;17.80;67.20;;;;;;5033085;28;20087;-79
2022/12/26 07:27:01;;;;;;;0.80;0.30;;;17.80;68.20;;;;;;5034171;28;20032;-79
2022/12/26 07:29:27;;;;;;;0.73;0.28;;;17.70;67.10;;;;;;5032701;28;20026;-79
2022/12/26 07:31:52;;;;;;;0.75;0.32;;;17.70;67.10;;;;;;5016432;28;20030;-79
2022/12/26 07:34:18;;;;;;;1.05;0.38;;;17.70;67.10;;;;;;5032457;28;20029;-79
2022/12/26 07:36:44;;;;;;;0.35;0.22;;;17.60;67.20;;;;;;5033829;28;20061;-79
2022/12/26 07:39:12;;;;;;;1.13;0.20;;;17.60;67.40;;;;;;5032740;28;20051;-79
2022/12/26 07:44:22;;;;;;;3.13;0.70;;;17.60;67.60;;;;;;5033845;28;20036;-78
2022/12/26 07:46:47;;;;;;;3.70;1.35;;;17.50;67.70;;;;;;5032178;28;20552;-81
2022/12/26 07:49:13;;;;;;;6.60;1.35;;;17.50;67.80;;;;;;5032782;28;20017;-79
2022/12/26 07:51:39;;;;;;;17.45;3.75;;;17.40;67.70;;;;;;5033305;28;20029;-78
2022/12/26 07:54:05;;;;;;;20.08;3.13;;;17.50;68.30;;;;;;5034662;28;20033;-78
2022/12/26 07:56:31;;;;;;;14.63;2.78;;;17.40;69.20;;;;;;5030833;28;20025;-78
2022/12/26 07:58:57;;;;;;;7.03;1.95;;;17.50;69.50;;;;;;5031606;28;20022;-79
2022/12/26 08:01:23;;;;;;;12.95;2.08;;;17.40;69.60;;;;;;5031251;28;20087;-78
2022/12/26 08:03:48;;;;;;;6.70;1.85;;;17.40;69.60;;;;;;5031429;28;20026;-79
2022/12/26 08:06:14;;;;;;;8.93;2.00;;;17.40;69.80;;;;;;5028411;28;20052;-79
2022/12/26 08:08:40;;;;;;;8.13;1.90;;;17.30;69.70;;;;;;5014974;28;20049;-78
2022/12/26 08:11:06;;;;;;;8.77;2.40;;;17.30;69.70;;;;;;5031888;28;20099;-79
2022/12/26 08:13:32;;;;;;;7.05;1.85;;;17.30;69.70;;;;;;5032484;28;20027;-79
2022/12/26 08:15:58;;;;;;;7.45;2.53;;;17.30;69.80;;;;;;5033305;28;20021;-79
2022/12/26 08:18:24;;;;;;;6.10;1.90;;;17.30;69.80;;;;;;5030987;28;20072;-79
2022/12/26 08:20:49;;;;;;;8.38;2.20;;;17.20;69.80;;;;;;5032295;28;20053;-79
2022/12/26 08:23:15;;;;;;;11.18;2.92;;;17.20;69.90;;;;;;5014898;28;20041;-79
2022/12/26 08:25:41;;;;;;;7.20;2.38;;;17.20;70.00;;;;;;5012241;28;20412;-78
2022/12/26 08:28:06;;;;;;;8.80;1.90;;;17.20;69.90;;;;;;5013601;28;20140;-78
2022/12/26 08:30:32;;;;;;;11.43;2.13;;;17.10;70.00;;;;;;5012473;28;20105;-79
2022/12/26 08:32:58;;;;;;;10.90;1.90;;;17.10;70.00;;;;;;5013166;28;20022;-79
2022/12/26 08:35:23;;;;;;;6.70;1.95;;;17.10;70.00;;;;;;5013471;28;20034;-79
2022/12/26 08:37:49;;;;;;;9.48;1.40;;;17.10;70.00;;;;;;5012148;28;20026;-79
2022/12/26 08:40:15;;;;;;;7.45;2.20;;;17.10;70.00;;;;;;5029974;28;20041;-79
2022/12/26 08:42:40;;;;;;;10.35;2.22;;;17.00;70.00;;;;;;5031840;28;20029;-78
2022/12/26 08:45:06;;;;;;;6.60;1.67;;;17.10;70.10;;;;;;5032826;28;20033;-79
2022/12/26 08:47:32;;;;;;;8.13;1.98;;;17.00;70.00;;;;;;5031694;28;20454;-79
2022/12/26 08:49:57;;;;;;;5.65;2.08;;;17.00;70.00;;;;;;5031865;28;20365;-79
2022/12/26 08:52:23;;;;;;;7.05;2.03;;;17.00;70.10;;;;;;5032840;28;20427;-79
2022/12/26 08:54:49;;;;;;;5.38;2.05;;;17.00;70.00;;;;;;5031543;28;20021;-79
2022/12/26 08:57:14;;;;;;;7.60;1.92;;;17.00;70.00;;;;;;5031629;28;20083;-79
2022/12/26 08:59:40;;;;;;;5.80;1.88;;;17.00;70.10;;;;;;5031482;28;20029;-79
2022/12/26 09:02:07;;;;;;;3.65;1.70;;;16.90;70.00;;;;;;5031231;28;20450;-79
2022/12/26 09:04:33;;;;;;;4.82;1.85;;;16.90;70.10;;;;;;5031577;28;20368;-79
2022/12/26 09:06:59;;;;;;;6.85;1.73;;;16.90;70.00;;;;;;5032385;28;20031;-79
2022/12/26 09:09:24;;;;;;;5.20;1.90;;;16.90;70.10;;;;;;5032769;28;20526;-79
2022/12/26 09:11:51;;;;;;;5.15;2.08;;;16.90;70.10;;;;;;5031302;28;20368;-79
2022/12/26 09:14:17;;;;;;;4.00;1.45;;;16.80;70.00;;;;;;5015425;28;20076;-79
2022/12/26 09:16:45;;;;;;;3.28;1.52;;;16.80;70.00;;;;;;5012571;28;20022;-79
2022/12/26 09:19:12;;;;;;;7.68;2.33;;;16.80;70.00;;;;;;5010774;28;20026;-79
2022/12/26 09:21:38;;;;;;;6.32;1.70;;;16.80;70.00;;;;;;5011738;28;20029;-79
2022/12/26 09:24:05;;;;;;;3.90;1.83;;;16.80;70.00;;;;;;5011425;28;20026;-79
2022/12/26 09:26:31;;;;;;;3.83;1.70;;;16.80;70.00;;;;;;5011621;28;20011;-79
2022/12/26 09:28:57;;;;;;;5.55;1.77;;;16.70;70.00;;;;;;5011312;28;20400;-78
2022/12/26 09:31:27;;;;;;;9.18;1.98;;;16.70;70.00;;;;;;5011343;28;20018;-79
2022/12/26 09:33:53;;;;;;;3.42;1.27;;;16.70;70.00;;;;;;5011359;28;20052;-79
2022/12/26 09:36:23;;;;;;;4.50;1.60;;;16.70;70.00;;;;;;5011466;28;20500;-79
2022/12/26 09:38:49;;;;;;;3.53;1.40;;;16.70;70.00;;;;;;5011478;28;20057;-79
2022/12/26 09:41:36;;;;;;;4.72;1.67;;;16.70;70.00;;;;;;4995043;28;20033;-79
2022/12/26 09:44:20;;;;;;;3.58;1.88;;;16.60;70.00;;;;;;5012447;28;20101;-79
2022/12/26 09:47:16;;;;;;;6.55;1.77;;;16.60;70.00;;;;;;5011083;28;20060;-79
2022/12/26 09:50:00;;;;;;;5.13;2.28;;;16.70;70.00;;;;;;5012316;28;20026;-78
2022/12/26 09:52:47;;;;;;;3.83;1.92;;;16.60;69.90;;;;;;5012652;28;20030;-79
2022/12/26 09:55:16;;;;;;;4.25;1.40;;;16.60;69.90;;;;;;4996250;28;20530;-79
2022/12/26 09:57:46;;;;;;;4.88;1.75;;;16.60;69.90;;;;;;5012472;28;20500;-79
2022/12/26 10:00:30;;;;;;;5.57;1.98;;;16.60;69.90;;;;;;5010830;28;20022;-78
2022/12/26 10:02:57;;;;;;;3.10;1.40;;;16.60;69.90;;;;;;5011151;28;20030;-79
2022/12/26 10:05:30;;;;;;;2.67;1.20;;;16.60;69.90;;;;;;5017379;28;20037;-79
2022/12/26 10:08:18;;;;;;;5.38;1.70;;;16.50;69.90;;;;;;5030697;28;20068;-79
2022/12/26 10:10:55;;;;;;;3.78;1.63;;;16.50;69.90;;;;;;5030858;28;20022;-79
2022/12/26 10:13:34;;;;;;;2.55;1.50;;;16.50;69.80;;;;;;5022491;28;20033;-79
2022/12/26 10:16:39;;;;;;;3.70;1.48;;;16.50;69.80;;;;;;5011128;28;20037;-79
2022/12/26 10:19:31;;;;;;;4.40;1.42;;;16.50;69.90;;;;;;5010293;28;20022;-79
2022/12/26 10:22:24;;;;;;;5.38;1.98;;;16.40;69.80;;;;;;5010757;28;20493;-79
2022/12/26 10:24:50;;;;;;;2.63;1.42;;;16.40;69.90;;;;;;5012157;28;20365;-79
2022/12/26 10:27:16;;;;;;;3.65;1.52;;;16.40;69.90;;;;;;5011101;28;20083;-79
2022/12/26 10:29:49;;;;;;;3.10;1.35;;;16.40;69.90;;;;;;5011934;28;20408;-79
2022/12/26 10:32:29;;;;;;;;;;;16.40;69.80;;;;;;5015000;28;20052;-79
2022/12/26 10:34:55;;;;;;;1.95;1.15;;;16.40;69.80;;;;;;5047283;28;19912;-79
2022/12/26 10:37:34;;;;;;;3.05;1.30;;;16.40;69.80;;;;;;5014566;28;20026;-79
2022/12/26 10:40:07;;;;;;;2.33;1.13;;;16.40;69.80;;;;;;4998027;28;20030;-79
2022/12/26 10:42:37;;;;;;;4.63;1.30;;;16.30;69.80;;;;;;5014550;28;20029;-79
2022/12/26 10:45:29;;;;;;;3.42;1.27;;;16.30;69.80;;;;;;5014237;28;20025;-79
2022/12/26 10:47:55;;;;;;;4.25;1.50;;;16.30;69.80;;;;;;5011651;28;20030;-79
2022/12/26 10:50:31;;;;;;;4.40;1.33;;;16.30;69.80;;;;;;5014327;28;20025;-79
2022/12/26 10:52:57;;;;;;;3.92;1.45;;;16.30;69.80;;;;;;5014196;28;20021;-79
2022/12/26 10:55:29;;;;;;;2.85;1.05;;;16.30;69.80;;;;;;5014359;28;20034;-79
2022/12/26 10:57:55;;;;;;;2.28;1.13;;;16.30;69.80;;;;;;5013872;28;20042;-78
2022/12/26 11:00:22;;;;;;;4.50;1.40;;;16.30;69.80;;;;;;4997509;28;20069;-78
2022/12/26 11:03:14;;;;;;;1.80;0.98;;;16.20;69.70;;;;;;5013930;28;20026;-79
2022/12/26 11:05:50;;;;;;;6.55;1.60;;;16.20;69.80;;;;;;5022575;28;20034;-79
2022/12/26 11:08:22;;;;;;;2.60;1.27;;;16.20;69.80;;;;;;5033567;28;20458;-79
2022/12/26 11:11:46;;;;;;;1.48;0.90;;;16.20;69.80;;;;;;5033555;28;20021;-79
2022/12/26 11:14:34;;;;;;;2.50;1.00;;;16.20;69.70;;;;;;5013148;28;20066;-79
2022/12/26 11:17:10;;;;;;;2.00;1.10;;;16.20;69.70;;;;;;5013736;28;20038;-79
2022/12/26 11:19:38;;;;;;;1.83;1.15;;;16.20;69.70;;;;;;5013725;28;20022;-79
2022/12/26 11:22:33;;;;;;;2.45;1.17;;;16.10;69.70;;;;;;5013732;28;20030;-79
2022/12/26 11:25:08;;;;;;;5.85;1.40;;;16.10;69.60;;;;;;5009961;28;20033;-79
2022/12/26 11:27:34;;;;;;;1.92;0.98;;;16.10;69.60;;;;;;5014655;28;20030;-79
2022/12/26 11:30:33;;;;;;;3.00;1.15;;;16.10;69.50;;;;;;5013461;28;20484;-79
2022/12/26 11:33:06;;;;;;;2.78;1.08;;;16.10;69.50;;;;;;5009464;28;20038;-79
2022/12/26 11:35:36;;;;;;;4.20;1.40;;;16.10;69.50;;;;;;5013565;28;20376;-79
2022/12/26 11:38:02;;;;;;;2.85;1.10;;;16.10;69.50;;;;;;5013236;28;20061;-79
2022/12/26 11:40:33;;;;;;;3.67;1.58;;;16.10;69.40;;;;;;5013182;28;20078;-79
2022/12/26 11:42:59;;;;;;;3.47;1.20;;;16.10;69.40;;;;;;4996111;28;20033;-79
2022/12/26 11:45:27;;;;;;;4.43;1.40;;;16.00;69.40;;;;;;5013171;28;20022;-79
2022/12/26 11:47:54;;;;;;;3.22;1.20;;;16.00;69.40;;;;;;5013134;28;20478;-79
2022/12/26 11:50:21;;;;;;;1.45;1.00;;;16.00;69.40;;;;;;5013071;28;20492;-79
2022/12/26 11:52:56;;;;;;;3.25;1.05;;;16.00;69.50;;;;;;5013121;28;20049;-79
2022/12/26 11:55:25;;;;;;;2.53;1.17;;;16.00;69.60;;;;;;5014103;28;20575;-79
2022/12/26 11:58:17;;;;;;;3.47;1.20;;;16.00;69.60;;;;;;5012853;28;20080;-79
2022/12/26 12:00:49;;;;;;;2.70;1.27;;;16.00;69.60;;;;;;5013748;28;20045;-79
2022/12/26 12:03:16;;;;;;;3.97;0.90;;;16.00;69.60;;;;;;5013038;28;20033;-79
2022/12/26 12:05:57;;;;;;;1.60;0.85;;;16.00;69.60;;;;;;5021853;28;20034;-79
2022/12/26 12:08:29;;;;;;;1.77;0.98;;;16.00;69.60;;;;;;5034137;28;20025;-79
2022/12/26 12:11:34;;;;;;;3.65;1.10;;;15.90;69.60;;;;;;5032276;28;20025;-79
2022/12/26 12:14:22;;;;;;;3.28;0.90;;;15.90;69.50;;;;;;5018793;28;20032;-79
2022/12/26 12:17:06;;;;;;;2.08;1.08;;;16.00;69.70;;;;;;5012755;28;20080;-79
2022/12/26 12:19:50;;;;;;;2.78;1.00;;;15.90;69.60;;;;;;5013911;28;20034;-79
2022/12/26 12:22:39;;;;;;;1.45;0.80;;;15.90;69.60;;;;;;5013571;28;20026;-79
2022/12/26 12:25:16;;;;;;;2.20;1.13;;;15.90;69.60;;;;;;5012213;28;20108;-79
2022/12/26 12:27:54;;;;;;;2.50;1.02;;;15.90;69.70;;;;;;5013628;28;20049;-79
2022/12/26 12:30:35;;;;;;;2.10;1.10;;;15.90;69.60;;;;;;5013601;28;20524;-79
2022/12/26 12:33:06;;;;;;;1.40;0.85;;;15.90;69.70;;;;;;5013433;28;20057;-79
2022/12/26 12:35:40;;;;;;;1.23;0.70;;;15.80;69.50;;;;;;5012436;28;20033;-79
2022/12/26 12:38:25;;;;;;;1.27;0.85;;;15.90;69.60;;;;;;5013331;28;20021;-79
2022/12/26 12:41:08;;;;;;;2.78;0.98;;;15.80;69.60;;;;;;5012189;28;20054;-79
2022/12/26 12:43:47;;;;;;;1.25;0.73;;;15.80;69.60;;;;;;5013461;28;20491;-79
2022/12/26 12:46:22;;;;;;;2.10;0.80;;;15.80;69.50;;;;;;5011985;28;20080;-79
2022/12/26 12:49:12;;;;;;;2.20;0.90;;;15.80;69.60;;;;;;5013422;28;20018;-79
2022/12/26 12:51:59;;;;;;;1.67;0.75;;;15.80;69.50;;;;;;5013212;28;20103;-79
2022/12/26 12:55:02;;;;;;;2.33;0.90;;;15.80;69.50;;;;;;5011765;28;20041;-79
2022/12/26 12:57:36;;;;;;;2.22;0.95;;;15.80;69.50;;;;;;5013067;28;20547;-79
2022/12/26 13:00:12;;;;;;;2.15;0.80;;;15.80;69.60;;;;;;5011678;28;20492;-78
2022/12/26 13:02:39;;;;;;;3.25;1.08;;;15.80;69.50;;;;;;5013166;28;20558;-79
2022/12/26 13:05:16;;;;;;;2.47;0.90;;;15.80;69.50;;;;;;5015488;28;20369;-79
2022/12/26 13:07:44;;;;;;;1.88;0.80;;;15.70;69.40;;;;;;5031409;28;20380;-79
2022/12/26 13:10:26;;;;;;;2.50;1.00;;;15.70;69.40;;;;;;5031228;28;20009;-79
2022/12/26 13:12:51;;;;;;;1.40;1.00;;;15.80;69.30;;;;;;5043559;28;20022;-79
2022/12/26 13:15:28;;;;;;;1.48;0.90;;;15.70;69.40;;;;;;5011883;28;20026;-79
2022/12/26 13:18:04;;;;;;;2.10;0.80;;;15.70;69.40;;;;;;5011817;28;20076;-79
2022/12/26 13:20:38;;;;;;;1.58;0.90;;;15.70;69.30;;;;;;5011705;28;20030;-79
2022/12/26 13:26:05;;;;;;;2.65;1.10;;;15.70;69.30;;;;;;5011707;28;20080;-79
2022/12/26 13:28:33;;;;;;;0.90;0.68;;;15.70;69.20;;;;;;5012695;28;20453;-79
2022/12/26 13:30:58;;;;;;;1.60;0.82;;;15.70;69.20;;;;;;5011617;28;20026;-79
2022/12/26 13:33:24;;;;;;;1.65;0.63;;;15.70;69.20;;;;;;5011331;28;20081;-79
2022/12/26 13:36:01;;;;;;;1.67;0.70;;;15.70;69.20;;;;;;4995245;28;20034;-79
2022/12/26 13:38:54;;;;;;;1.73;0.80;;;15.60;69.30;;;;;;5011319;28;20101;-79
2022/12/26 13:44:16;;;;;;;1.42;0.80;;;15.70;69.20;;;;;;5011411;28;20040;-79
2022/12/26 13:46:45;;;;;;;1.10;0.68;;;15.60;69.10;;;;;;5011519;28;20026;-79
2022/12/26 13:49:28;;;;;;;2.35;0.90;;;15.60;69.10;;;;;;5012532;28;20033;-79
2022/12/26 13:51:59;;;;;;;0.93;0.63;;;15.60;68.90;;;;;;5012409;28;20499;-79
2022/12/26 13:54:26;;;;;;;1.67;0.68;;;15.60;69.10;;;;;;5011128;28;20053;-79
2022/12/26 13:57:33;;;;;;;0.98;0.85;;;15.60;69.10;;;;;;5011307;28;20026;-79
2022/12/26 14:00:03;;;;;;;1.30;0.80;;;15.60;69.00;;;;;;4990606;28;20035;-79
2022/12/26 14:03:02;;;;;;;1.83;0.75;;;15.60;69.10;;;;;;4990531;28;20089;-79
2022/12/26 14:05:35;;;;;;;0.85;0.52;;;15.60;69.00;;;;;;4999842;28;20038;-79
2022/12/26 14:08:04;;;;;;;1.13;0.70;;;15.60;69.10;;;;;;4981696;28;20026;-79
2022/12/26 14:10:33;;;;;;;2.53;0.80;;;15.60;69.10;;;;;;5014252;28;20058;-79
2022/12/26 14:13:46;;;;;;;1.42;0.90;;;15.60;69.20;;;;;;5013989;28;20562;-79
2022/12/26 14:16:14;;;;;;;;;;;15.60;69.20;;;;;;5005813;28;20038;-79
2022/12/26 14:18:42;;;;;;;0.90;0.60;;;15.50;69.10;;;;;;4997717;28;19906;-79
2022/12/26 14:21:25;;;;;;;0.73;0.50;;;15.50;69.20;;;;;;5013676;28;20109;-79
2022/12/26 14:24:00;;;;;;;1.58;0.68;;;15.50;69.20;;;;;;5013873;28;20113;-79
2022/12/26 14:26:50;;;;;;;2.17;0.80;;;15.50;69.20;;;;;;5013824;28;20030;-79
2022/12/26 14:29:16;;;;;;;1.02;0.60;;;15.50;69.20;;;;;;5013862;28;20033;-79
2022/12/26 14:32:10;;;;;;;1.63;0.70;;;15.50;69.20;;;;;;4997291;28;20122;-79
2022/12/26 14:34:58;;;;;;;1.23;0.50;;;15.50;69.30;;;;;;5013511;28;20037;-79
2022/12/26 14:37:35;;;;;;;1.23;0.57;;;15.50;69.30;;;;;;5031277;28;20128;-79
2022/12/26 14:40:37;;;;;;;1.10;0.70;;;15.50;69.30;;;;;;5034208;28;20026;-79
2022/12/26 14:43:31;;;;;;;0.70;0.50;;;15.50;69.30;;;;;;4977684;28;20038;-79
2022/12/26 14:45:57;;;;;;;1.27;0.80;;;15.50;69.40;;;;;;4978078;28;20070;-79
2022/12/26 14:48:22;;;;;;;1.58;0.57;;;15.40;70.30;;;;;;4977402;28;20548;-79
2022/12/26 14:50:53;;;;;;;0.57;0.50;;;15.40;69.40;;;;;;4993572;28;20038;-79
2022/12/26 14:53:26;;;;;;;0.90;0.60;;;15.40;69.30;;;;;;4977798;28;20114;-79
2022/12/26 14:55:52;;;;;;;3.15;0.98;;;15.40;69.30;;;;;;4993928;28;20089;-79
2022/12/26 14:58:24;;;;;;;1.30;0.70;;;15.40;69.30;;;;;;4993441;28;20464;-79
2022/12/26 15:00:50;;;;;;;0.93;0.60;;;15.40;69.30;;;;;;4977256;28;20046;-79
2022/12/26 15:03:36;;;;;;;0.73;0.60;;;15.40;69.30;;;;;;4977205;28;20116;-79
2022/12/26 15:06:20;;;;;;;2.60;0.77;;;15.40;69.30;;;;;;4992789;28;20042;-79
2022/12/26 15:09:03;;;;;;;0.52;0.40;;;15.40;69.30;;;;;;4978021;28;20026;-79
2022/12/26 15:12:04;;;;;;;1.77;0.65;;;15.40;69.30;;;;;;4993355;28;20524;-79
2022/12/26 15:14:57;;;;;;;1.30;0.57;;;15.40;69.40;;;;;;4980648;28;20038;-79
2022/12/26 15:18:01;;;;;;;0.98;0.60;;;15.40;69.40;;;;;;5005808;28;20049;-79
2022/12/26 15:20:32;;;;;;;1.02;0.60;;;15.40;69.40;;;;;;5014800;28;20036;-79
2022/12/26 15:23:16;;;;;;;1.63;0.65;;;15.40;69.50;;;;;;5014918;28;20057;-79
2022/12/26 15:26:03;;;;;;;1.38;0.70;;;15.40;69.40;;;;;;5014624;28;20507;-79
2022/12/26 15:28:47;;;;;;;0.82;0.50;;;15.40;69.50;;;;;;5013531;28;20116;-79